createdAt,value
2019-06-27T00:00:48.311Z,1010.17
2019-06-27T00:01:48.335Z,1010.15
2019-06-27T00:02:48.455Z,1010.19
2019-06-27T00:03:48.392Z,1010.16
2019-06-27T00:04:48.415Z,1010.18
2019-06-27T00:05:48.442Z,1010.12
2019-06-27T00:06:48.469Z,1010.17
2019-06-27T00:07:48.495Z,1010.18
2019-06-27T00:08:48.522Z,1010.17
2019-06-27T00:09:48.547Z,1010.19
2019-06-27T00:10:48.613Z,1010.23
2019-06-27T00:11:48.601Z,1010.24
2019-06-27T00:12:48.628Z,1010.22
2019-06-27T00:13:48.657Z,1010.2
2019-06-27T00:14:48.680Z,1010.19
2019-06-27T00:15:48.708Z,1010.17
2019-06-27T00:16:48.734Z,1010.12
2019-06-27T00:17:48.764Z,1010.15
2019-06-27T00:18:48.788Z,1010.08
2019-06-27T00:19:48.815Z,1010.11
2019-06-27T00:20:48.840Z,1010.17
2019-06-27T00:21:48.870Z,1010.2
2019-06-27T00:22:48.894Z,1010.22
2019-06-27T00:23:48.921Z,1010.22
2019-06-27T00:24:48.946Z,1010.16
2019-06-27T00:25:48.973Z,1010.16
2019-06-27T00:26:56.894Z,1010.23
2019-06-27T00:27:49.037Z,1010.24
2019-06-27T00:28:49.051Z,1010.26
2019-06-27T00:29:49.099Z,1010.21
2019-06-27T00:30:49.108Z,1010.21
2019-06-27T00:31:49.149Z,1010.18
2019-06-27T00:32:49.159Z,1010.17
2019-06-27T00:33:49.186Z,1010.22
2019-06-27T00:34:49.214Z,1010.22
2019-06-27T00:35:49.238Z,1010.26
2019-06-27T00:36:49.264Z,1010.28
2019-06-27T00:37:49.291Z,1010.28
2019-06-27T00:38:49.319Z,1010.28
2019-06-27T00:39:49.345Z,1010.29
2019-06-27T00:40:49.372Z,1010.21
2019-06-27T00:41:49.399Z,1010.22
2019-06-27T00:42:49.423Z,1010.25
2019-06-27T00:43:49.450Z,1010.3
2019-06-27T00:44:49.477Z,1010.28
2019-06-27T00:45:49.504Z,1010.3
2019-06-27T00:46:49.529Z,1010.31
2019-06-27T00:47:49.555Z,1010.3
2019-06-27T00:48:49.584Z,1010.33
2019-06-27T00:49:49.617Z,1010.28
2019-06-27T00:50:49.635Z,1010.35
2019-06-27T00:51:49.674Z,1010.36
2019-06-27T00:52:49.688Z,1010.42
2019-06-27T00:53:49.713Z,1010.4
2019-06-27T00:54:49.740Z,1010.37
2019-06-27T00:55:49.766Z,1010.38
2019-06-27T00:56:49.803Z,1010.39
2019-06-27T00:57:49.820Z,1010.36
2019-06-27T00:58:49.845Z,1010.34
2019-06-27T00:59:49.874Z,1010.35
2019-06-27T01:00:49.899Z,1010.43
2019-06-27T01:01:49.931Z,1010.45
2019-06-27T01:02:49.955Z,1010.41
2019-06-27T01:03:49.978Z,1010.43
2019-06-27T01:04:50.007Z,1010.42
2019-06-27T01:05:50.030Z,1010.43
2019-06-27T01:06:50.057Z,1010.48
2019-06-27T01:07:50.094Z,1010.42
2019-06-27T01:08:50.109Z,1010.48
2019-06-27T01:09:50.141Z,1010.5
2019-06-27T01:10:50.163Z,1010.54
2019-06-27T01:11:50.190Z,1010.51
2019-06-27T01:12:50.215Z,1010.51
2019-06-27T01:13:50.242Z,1010.5
2019-06-27T01:14:50.270Z,1010.47
2019-06-27T01:15:50.293Z,1010.46
2019-06-27T01:16:50.320Z,1010.45
2019-06-27T01:17:50.351Z,1010.43
2019-06-27T01:18:50.372Z,1010.47
2019-06-27T01:19:50.402Z,1010.45
2019-06-27T01:20:50.424Z,1010.44
2019-06-27T01:21:50.450Z,1010.51
2019-06-27T01:22:50.475Z,1010.53
2019-06-27T01:23:50.502Z,1010.55
2019-06-27T01:24:50.529Z,1010.54
2019-06-27T01:25:50.555Z,1010.51
2019-06-27T01:26:50.581Z,1010.5
2019-06-27T01:27:50.608Z,1010.5
2019-06-27T01:28:50.634Z,1010.47
2019-06-27T01:29:50.663Z,1010.48
2019-06-27T01:30:50.685Z,1010.49
2019-06-27T01:31:50.715Z,1010.45
2019-06-27T01:32:50.738Z,1010.49
2019-06-27T01:33:50.763Z,1010.46
2019-06-27T01:34:50.792Z,1010.49
2019-06-27T01:35:50.815Z,1010.47
2019-06-27T01:36:50.845Z,1010.45
2019-06-27T01:37:50.867Z,1010.46
2019-06-27T01:38:50.894Z,1010.43
2019-06-27T01:39:50.920Z,1010.41
2019-06-27T01:40:50.947Z,1010.45
2019-06-27T01:41:50.978Z,1010.4
2019-06-27T01:42:50.998Z,1010.42
2019-06-27T01:43:52.469Z,1010.46
2019-06-27T01:44:51.051Z,1010.43
2019-06-27T01:45:51.255Z,1010.47
2019-06-27T01:46:51.106Z,1010.47
2019-06-27T01:47:51.130Z,1010.47
2019-06-27T01:48:51.153Z,1010.41
2019-06-27T01:49:51.180Z,1010.49
2019-06-27T01:50:51.207Z,1010.44
2019-06-27T01:51:51.237Z,1010.47
2019-06-27T01:52:51.276Z,1010.51
2019-06-27T01:53:51.285Z,1010.48
2019-06-27T01:54:51.311Z,1010.47
2019-06-27T01:55:51.338Z,1010.45
2019-06-27T01:56:51.366Z,1010.46
2019-06-27T01:57:51.390Z,1010.42
2019-06-27T01:58:51.416Z,1010.44
2019-06-27T01:59:51.440Z,1010.47
2019-06-27T02:00:51.471Z,1010.53
2019-06-27T02:01:51.493Z,1010.55
2019-06-27T02:02:51.520Z,1010.51
2019-06-27T02:03:51.549Z,1010.51
2019-06-27T02:04:51.571Z,1010.47
2019-06-27T02:05:51.597Z,1010.46
2019-06-27T02:06:51.622Z,1010.45
2019-06-27T02:07:51.649Z,1010.44
2019-06-27T02:08:51.678Z,1010.48
2019-06-27T02:09:51.702Z,1010.45
2019-06-27T02:10:51.727Z,1010.45
2019-06-27T02:11:51.759Z,1010.41
2019-06-27T02:12:51.779Z,1010.44
2019-06-27T02:13:51.805Z,1010.42
2019-06-27T02:14:51.837Z,1010.43
2019-06-27T02:15:51.855Z,1010.42
2019-06-27T02:16:51.881Z,1010.47
2019-06-27T02:17:51.909Z,1010.42
2019-06-27T02:18:51.934Z,1010.44
2019-06-27T02:19:51.961Z,1010.4
2019-06-27T02:20:51.986Z,1010.4
2019-06-27T02:21:52.010Z,1010.39
2019-06-27T02:22:52.044Z,1010.41
2019-06-27T02:23:52.063Z,1010.47
2019-06-27T02:24:52.089Z,1010.43
2019-06-27T02:25:52.115Z,1010.44
2019-06-27T02:26:52.141Z,1010.49
2019-06-27T02:28:02.936Z,1010.5
2019-06-27T02:28:52.192Z,1010.5
2019-06-27T02:29:52.218Z,1010.54
2019-06-27T02:30:52.248Z,1010.53
2019-06-27T02:31:52.279Z,1010.55
2019-06-27T02:32:52.298Z,1010.58
2019-06-27T02:33:52.322Z,1010.53
2019-06-27T02:34:52.353Z,1010.57
2019-06-27T02:35:52.374Z,1010.57
2019-06-27T02:36:52.401Z,1010.57
2019-06-27T02:37:52.427Z,1010.56
2019-06-27T02:38:52.453Z,1010.56
2019-06-27T02:39:52.481Z,1010.59
2019-06-27T02:40:52.534Z,1010.6
2019-06-27T02:41:52.586Z,1010.6
2019-06-27T02:42:52.557Z,1010.64
2019-06-27T02:43:52.581Z,1010.62
2019-06-27T02:44:52.607Z,1010.65
2019-06-27T02:45:52.633Z,1010.61
2019-06-27T02:46:52.658Z,1010.58
2019-06-27T02:47:52.686Z,1010.61
2019-06-27T02:48:52.716Z,1010.65
2019-06-27T02:49:52.736Z,1010.67
2019-06-27T02:50:52.761Z,1010.62
2019-06-27T02:51:52.787Z,1010.63
2019-06-27T02:52:52.813Z,1010.66
2019-06-27T02:53:52.839Z,1010.65
2019-06-27T02:54:52.863Z,1010.63
2019-06-27T02:55:52.892Z,1010.59
2019-06-27T02:56:52.920Z,1010.63
2019-06-27T02:57:52.942Z,1010.67
2019-06-27T02:58:52.969Z,1010.65
2019-06-27T02:59:52.995Z,1010.63
2019-06-27T03:00:53.031Z,1010.61
2019-06-27T03:01:53.044Z,1010.61
2019-06-27T03:02:53.073Z,1010.61
2019-06-27T03:03:53.096Z,1010.65
2019-06-27T03:04:53.124Z,1010.67
2019-06-27T03:05:53.148Z,1010.68
2019-06-27T03:06:53.174Z,1010.71
2019-06-27T03:07:53.199Z,1010.68
2019-06-27T03:08:53.228Z,1010.7
2019-06-27T03:09:53.269Z,1010.71
2019-06-27T03:10:53.276Z,1010.71
2019-06-27T03:11:53.304Z,1010.72
2019-06-27T03:12:53.329Z,1010.78
2019-06-27T03:13:53.353Z,1010.69
2019-06-27T03:14:53.380Z,1010.79
2019-06-27T03:15:53.412Z,1010.77
2019-06-27T03:16:53.436Z,1010.72
2019-06-27T03:17:53.457Z,1010.74
2019-06-27T03:18:53.483Z,1010.74
2019-06-27T03:19:53.508Z,1010.72
2019-06-27T03:20:53.539Z,1010.76
2019-06-27T03:21:53.559Z,1010.75
2019-06-27T03:22:53.584Z,1010.73
2019-06-27T03:23:53.612Z,1010.69
2019-06-27T03:24:53.637Z,1010.74
2019-06-27T03:25:53.661Z,1010.75
2019-06-27T03:26:53.689Z,1010.78
2019-06-27T03:27:53.713Z,1010.77
2019-06-27T03:28:54.231Z,1010.75
2019-06-27T03:29:53.763Z,1010.75
2019-06-27T03:30:53.790Z,1010.79
2019-06-27T03:31:53.835Z,1010.75
2019-06-27T03:32:53.849Z,1010.74
2019-06-27T03:33:53.866Z,1010.71
2019-06-27T03:34:53.891Z,1010.7
2019-06-27T03:35:53.951Z,1010.69
2019-06-27T03:36:53.946Z,1010.71
2019-06-27T03:37:53.997Z,1010.71
2019-06-27T03:38:53.994Z,1010.7
2019-06-27T03:39:54.031Z,1010.72
2019-06-27T03:40:54.044Z,1010.72
2019-06-27T03:41:54.068Z,1010.73
2019-06-27T03:42:54.096Z,1010.74
2019-06-27T03:43:54.149Z,1010.74
2019-06-27T03:44:54.147Z,1010.73
2019-06-27T03:45:54.171Z,1010.75
2019-06-27T03:46:54.199Z,1010.74
2019-06-27T03:47:54.227Z,1010.76
2019-06-27T03:48:54.253Z,1010.77
2019-06-27T03:49:54.275Z,1010.8
2019-06-27T03:50:56.180Z,1010.72
2019-06-27T03:51:54.327Z,1010.73
2019-06-27T03:52:54.350Z,1010.76
2019-06-27T03:53:54.376Z,1010.75
2019-06-27T03:54:54.402Z,1010.77
2019-06-27T03:55:54.428Z,1010.78
2019-06-27T03:56:54.453Z,1010.76
2019-06-27T03:57:54.479Z,1010.75
2019-06-27T03:59:11.121Z,1010.75
2019-06-27T03:59:54.529Z,1010.75
2019-06-27T04:00:54.573Z,1010.82
2019-06-27T04:01:54.581Z,1010.79
2019-06-27T04:02:54.606Z,1010.82
2019-06-27T04:03:54.631Z,1010.87
2019-06-27T04:04:54.661Z,1010.9
2019-06-27T04:05:54.696Z,1010.82
2019-06-27T04:06:54.714Z,1010.83
2019-06-27T04:07:54.734Z,1010.77
2019-06-27T04:08:54.759Z,1010.78
2019-06-27T04:09:54.785Z,1010.8
2019-06-27T04:10:54.820Z,1010.81
2019-06-27T04:11:54.855Z,1010.82
2019-06-27T04:12:54.862Z,1010.82
2019-06-27T04:13:54.889Z,1010.85
2019-06-27T04:14:54.914Z,1010.85
2019-06-27T04:15:54.940Z,1010.85
2019-06-27T04:16:54.968Z,1010.84
2019-06-27T04:17:54.991Z,1010.87
2019-06-27T04:18:55.015Z,1010.87
2019-06-27T04:19:55.045Z,1010.85
2019-06-27T04:20:55.067Z,1010.85
2019-06-27T04:21:55.091Z,1010.86
2019-06-27T04:22:55.117Z,1010.86
2019-06-27T04:23:55.145Z,1010.85
2019-06-27T04:24:55.169Z,1010.87
2019-06-27T04:25:55.195Z,1010.83
2019-06-27T04:26:55.229Z,1010.87
2019-06-27T04:27:59.514Z,1010.9
2019-06-27T04:28:55.281Z,1010.85
2019-06-27T04:29:55.303Z,1010.89
2019-06-27T04:30:55.336Z,1010.88
2019-06-27T04:31:55.348Z,1010.87
2019-06-27T04:32:55.388Z,1010.88
2019-06-27T04:33:55.399Z,1010.9
2019-06-27T04:34:55.425Z,1010.94
2019-06-27T04:35:55.459Z,1010.95
2019-06-27T04:36:55.476Z,1010.95
2019-06-27T04:37:55.501Z,1010.95
2019-06-27T04:38:55.527Z,1010.95
2019-06-27T04:39:55.551Z,1010.97
2019-06-27T04:40:55.577Z,1010.91
2019-06-27T04:41:55.611Z,1010.93
2019-06-27T04:42:55.631Z,1010.97
2019-06-27T04:43:55.653Z,1010.92
2019-06-27T04:44:55.701Z,1010.96
2019-06-27T04:45:55.707Z,1010.98
2019-06-27T04:46:55.732Z,1011
2019-06-27T04:47:55.756Z,1011
2019-06-27T04:48:55.786Z,1010.99
2019-06-27T04:49:55.813Z,1011
2019-06-27T04:50:55.835Z,1011
2019-06-27T04:51:55.859Z,1010.97
2019-06-27T04:52:55.895Z,1010.97
2019-06-27T04:53:55.912Z,1011
2019-06-27T04:54:55.938Z,1010.99
2019-06-27T04:55:55.967Z,1010.99
2019-06-27T04:56:55.988Z,1010.98
2019-06-27T04:57:56.017Z,1011.01
2019-06-27T04:58:56.040Z,1010.99
2019-06-27T04:59:56.066Z,1010.99
2019-06-27T05:00:56.093Z,1010.99
2019-06-27T05:01:56.118Z,1011.01
2019-06-27T05:02:56.143Z,1011.01
2019-06-27T05:03:56.169Z,1011.05
2019-06-27T05:04:56.195Z,1011.04
2019-06-27T05:05:56.222Z,1011.04
2019-06-27T05:06:56.246Z,1011.07
2019-06-27T05:07:56.273Z,1011.1
2019-06-27T05:08:56.299Z,1011.1
2019-06-27T05:09:56.331Z,1011.14
2019-06-27T05:10:56.357Z,1011.18
2019-06-27T05:11:56.376Z,1011.18
2019-06-27T05:12:56.401Z,1011.13
2019-06-27T05:13:56.426Z,1011.2
2019-06-27T05:14:56.459Z,1011.18
2019-06-27T05:15:56.479Z,1011.13
2019-06-27T05:16:56.504Z,1011.17
2019-06-27T05:17:56.530Z,1011.2
2019-06-27T05:18:56.556Z,1011.19
2019-06-27T05:19:56.583Z,1011.2
2019-06-27T05:20:56.606Z,1011.18
2019-06-27T05:21:56.632Z,1011.21
2019-06-27T05:22:56.661Z,1011.2
2019-06-27T05:23:56.683Z,1011.22
2019-06-27T05:24:56.711Z,1011.24
2019-06-27T05:25:56.738Z,1011.25
2019-06-27T05:26:56.763Z,1011.24
2019-06-27T05:27:56.785Z,1011.22
2019-06-27T05:28:56.812Z,1011.25
2019-06-27T05:30:08.507Z,1011.28
2019-06-27T05:30:56.920Z,1011.29
2019-06-27T05:31:56.889Z,1011.32
2019-06-27T05:32:56.915Z,1011.38
2019-06-27T05:33:56.940Z,1011.34
2019-06-27T05:34:56.966Z,1011.35
2019-06-27T05:35:56.991Z,1011.32
2019-06-27T05:36:57.025Z,1011.33
2019-06-27T05:37:57.090Z,1011.34
2019-06-27T05:38:57.069Z,1011.38
2019-06-27T05:39:57.095Z,1011.4
2019-06-27T05:40:57.119Z,1011.41
2019-06-27T05:41:57.145Z,1011.41
2019-06-27T05:42:57.170Z,1011.39
2019-06-27T05:43:57.196Z,1011.4
2019-06-27T05:44:57.221Z,1011.42
2019-06-27T05:45:57.247Z,1011.44
2019-06-27T05:46:57.273Z,1011.39
2019-06-27T05:47:57.307Z,1011.41
2019-06-27T05:48:57.326Z,1011.39
2019-06-27T05:49:57.352Z,1011.43
2019-06-27T05:50:57.383Z,1011.38
2019-06-27T05:51:57.402Z,1011.42
2019-06-27T05:52:57.428Z,1011.42
2019-06-27T05:53:57.462Z,1011.42
2019-06-27T05:54:57.485Z,1011.44
2019-06-27T05:55:57.505Z,1011.47
2019-06-27T05:56:57.534Z,1011.43
2019-06-27T05:57:57.557Z,1011.43
2019-06-27T05:58:57.584Z,1011.44
2019-06-27T05:59:57.621Z,1011.44
2019-06-27T06:00:57.638Z,1011.43
2019-06-27T06:01:57.660Z,1011.47
2019-06-27T06:02:57.687Z,1011.49
2019-06-27T06:03:57.711Z,1011.46
2019-06-27T06:04:57.787Z,1011.46
2019-06-27T06:05:57.762Z,1011.49
2019-06-27T06:06:57.790Z,1011.5
2019-06-27T06:07:57.817Z,1011.52
2019-06-27T06:08:57.841Z,1011.53
2019-06-27T06:09:57.869Z,1011.54
2019-06-27T06:10:57.893Z,1011.56
2019-06-27T06:11:57.972Z,1011.56
2019-06-27T06:12:57.947Z,1011.57
2019-06-27T06:13:57.971Z,1011.59
2019-06-27T06:14:57.997Z,1011.53
2019-06-27T06:16:00.953Z,1011.55
2019-06-27T06:16:58.049Z,1011.54
2019-06-27T06:17:58.075Z,1011.55
2019-06-27T06:18:58.099Z,1011.57
2019-06-27T06:19:58.126Z,1011.54
2019-06-27T06:20:58.152Z,1011.62
2019-06-27T06:21:58.179Z,1011.62
2019-06-27T06:22:58.204Z,1011.61
2019-06-27T06:23:58.234Z,1011.56
2019-06-27T06:24:58.472Z,1011.6
2019-06-27T06:25:58.283Z,1011.58
2019-06-27T06:26:58.309Z,1011.55
2019-06-27T06:27:58.335Z,1011.58
2019-06-27T06:28:58.361Z,1011.56
2019-06-27T06:29:58.385Z,1011.58
2019-06-27T06:30:58.413Z,1011.6
2019-06-27T06:31:58.442Z,1011.6
2019-06-27T06:32:58.467Z,1011.59
2019-06-27T06:33:58.534Z,1011.59
2019-06-27T06:34:58.540Z,1011.54
2019-06-27T06:35:58.542Z,1011.57
2019-06-27T06:36:58.571Z,1011.57
2019-06-27T06:37:58.594Z,1011.56
2019-06-27T06:38:58.620Z,1011.56
2019-06-27T06:39:58.645Z,1011.59
2019-06-27T06:40:58.672Z,1011.59
2019-06-27T06:41:58.709Z,1011.64
2019-06-27T06:43:00.515Z,1011.58
2019-06-27T06:43:58.749Z,1011.59
2019-06-27T06:44:58.776Z,1011.59
2019-06-27T06:45:58.804Z,1011.55
2019-06-27T06:46:58.880Z,1011.59
2019-06-27T06:47:58.855Z,1011.58
2019-06-27T06:48:58.881Z,1011.6
2019-06-27T06:49:58.907Z,1011.54
2019-06-27T06:50:58.934Z,1011.58
2019-06-27T06:51:58.956Z,1011.63
2019-06-27T06:52:58.984Z,1011.63
2019-06-27T06:53:59.009Z,1011.64
2019-06-27T06:54:59.035Z,1011.65
2019-06-27T06:55:59.062Z,1011.64
2019-06-27T06:56:59.087Z,1011.59
2019-06-27T06:57:59.116Z,1011.6
2019-06-27T06:58:59.145Z,1011.58
2019-06-27T06:59:59.168Z,1011.64
2019-06-27T07:01:01.790Z,1011.63
2019-06-27T07:01:59.221Z,1011.63
2019-06-27T07:02:59.258Z,1011.6
2019-06-27T07:03:59.269Z,1011.64
2019-06-27T07:04:59.296Z,1011.65
2019-06-27T07:05:59.322Z,1011.66
2019-06-27T07:06:59.347Z,1011.69
2019-06-27T07:07:59.372Z,1011.69
2019-06-27T07:08:59.398Z,1011.68
2019-06-27T07:09:59.447Z,1011.69
2019-06-27T07:10:59.452Z,1011.73
2019-06-27T07:11:59.477Z,1011.72
2019-06-27T07:12:59.502Z,1011.68
2019-06-27T07:13:59.529Z,1011.7
2019-06-27T07:14:59.554Z,1011.67
2019-06-27T07:15:59.580Z,1011.67
2019-06-27T07:16:59.688Z,1011.65
2019-06-27T07:17:59.632Z,1011.65
2019-06-27T07:18:59.658Z,1011.68
2019-06-27T07:19:59.683Z,1011.71
2019-06-27T07:20:59.719Z,1011.66
2019-06-27T07:21:59.736Z,1011.68
2019-06-27T07:22:59.761Z,1011.67
2019-06-27T07:23:59.791Z,1011.67
2019-06-27T07:24:59.814Z,1011.67
2019-06-27T07:25:59.841Z,1011.65
2019-06-27T07:26:59.882Z,1011.64
2019-06-27T07:27:59.907Z,1011.67
2019-06-27T07:28:59.918Z,1011.64
2019-06-27T07:29:59.945Z,1011.67
2019-06-27T07:30:59.973Z,1011.66
2019-06-27T07:31:59.994Z,1011.64
2019-06-27T07:33:00.021Z,1011.66
2019-06-27T07:34:00.047Z,1011.66
2019-06-27T07:35:00.072Z,1011.67
2019-06-27T07:36:00.128Z,1011.64
2019-06-27T07:37:00.127Z,1011.66
2019-06-27T07:38:00.151Z,1011.67
2019-06-27T07:39:00.205Z,1011.66
2019-06-27T07:40:00.204Z,1011.65
2019-06-27T07:41:00.228Z,1011.68
2019-06-27T07:42:00.254Z,1011.67
2019-06-27T07:43:00.280Z,1011.68
2019-06-27T07:44:00.306Z,1011.71
2019-06-27T07:45:00.333Z,1011.67
2019-06-27T07:46:00.376Z,1011.67
2019-06-27T07:47:00.383Z,1011.68
2019-06-27T07:48:00.414Z,1011.72
2019-06-27T07:49:00.435Z,1011.71
2019-06-27T07:50:00.461Z,1011.73
2019-06-27T07:51:00.486Z,1011.7
2019-06-27T07:52:00.512Z,1011.66
2019-06-27T07:53:00.545Z,1011.7
2019-06-27T07:54:00.707Z,1011.67
2019-06-27T07:55:00.592Z,1011.7
2019-06-27T07:56:00.613Z,1011.75
2019-06-27T07:57:00.641Z,1011.72
2019-06-27T07:58:00.666Z,1011.7
2019-06-27T07:59:00.695Z,1011.7
2019-06-27T08:00:00.728Z,1011.68
2019-06-27T08:01:00.743Z,1011.67
2019-06-27T08:02:00.769Z,1011.64
2019-06-27T08:03:00.795Z,1011.65
2019-06-27T08:04:00.821Z,1011.66
2019-06-27T08:05:00.846Z,1011.65
2019-06-27T08:06:00.887Z,1011.71
2019-06-27T08:07:00.898Z,1011.67
2019-06-27T08:08:00.924Z,1011.66
2019-06-27T08:09:01.007Z,1011.64
2019-06-27T08:10:00.975Z,1011.61
2019-06-27T08:11:01.002Z,1011.64
2019-06-27T08:12:01.027Z,1011.61
2019-06-27T08:13:01.054Z,1011.6
2019-06-27T08:14:01.081Z,1011.61
2019-06-27T08:15:01.106Z,1011.62
2019-06-27T08:16:01.129Z,1011.58
2019-06-27T08:17:01.156Z,1011.6
2019-06-27T08:18:01.196Z,1011.59
2019-06-27T08:19:01.208Z,1011.62
2019-06-27T08:20:01.233Z,1011.56
2019-06-27T08:21:01.278Z,1011.61
2019-06-27T08:22:01.285Z,1011.59
2019-06-27T08:23:01.315Z,1011.59
2019-06-27T08:24:01.336Z,1011.59
2019-06-27T08:25:01.363Z,1011.56
2019-06-27T08:26:01.389Z,1011.62
2019-06-27T08:27:01.412Z,1011.6
2019-06-27T08:28:01.439Z,1011.63
2019-06-27T08:29:01.466Z,1011.6
2019-06-27T08:30:01.518Z,1011.6
2019-06-27T08:31:01.521Z,1011.62
2019-06-27T08:32:01.561Z,1011.63
2019-06-27T08:33:01.578Z,1011.61
2019-06-27T08:34:01.599Z,1011.6
2019-06-27T08:35:01.703Z,1011.6
2019-06-27T08:36:01.647Z,1011.57
2019-06-27T08:37:01.672Z,1011.6
2019-06-27T08:38:01.716Z,1011.65
2019-06-27T08:39:01.722Z,1011.66
2019-06-27T08:40:01.774Z,1011.64
2019-06-27T08:41:01.791Z,1011.62
2019-06-27T08:42:01.816Z,1011.63
2019-06-27T08:43:01.826Z,1011.6
2019-06-27T08:44:01.852Z,1011.53
2019-06-27T08:45:01.882Z,1011.58
2019-06-27T08:46:01.921Z,1011.57
2019-06-27T08:47:01.932Z,1011.53
2019-06-27T08:48:01.956Z,1011.53
2019-06-27T08:49:01.979Z,1011.52
2019-06-27T08:50:02.018Z,1011.56
2019-06-27T08:51:02.037Z,1011.52
2019-06-27T08:52:02.058Z,1011.5
2019-06-27T08:53:02.082Z,1011.56
2019-06-27T08:54:02.110Z,1011.58
2019-06-27T08:55:02.136Z,1011.54
2019-06-27T08:56:02.161Z,1011.57
2019-06-27T08:57:02.190Z,1011.58
2019-06-27T08:58:02.270Z,1011.57
2019-06-27T08:59:02.240Z,1011.55
2019-06-27T09:00:02.269Z,1011.54
2019-06-27T09:01:02.296Z,1011.52
2019-06-27T09:02:08.259Z,1011.52
2019-06-27T09:03:02.345Z,1011.51
2019-06-27T09:04:02.369Z,1011.49
2019-06-27T09:05:02.394Z,1011.54
2019-06-27T09:06:02.466Z,1011.57
2019-06-27T09:07:02.448Z,1011.56
2019-06-27T09:08:02.528Z,1011.55
2019-06-27T09:09:02.499Z,1011.51
2019-06-27T09:10:02.528Z,1011.53
2019-06-27T09:11:02.552Z,1011.52
2019-06-27T09:12:02.575Z,1011.55
2019-06-27T09:13:02.609Z,1011.56
2019-06-27T09:14:02.631Z,1011.55
2019-06-27T09:15:02.659Z,1011.57
2019-06-27T09:16:02.681Z,1011.52
2019-06-27T09:17:02.706Z,1011.52
2019-06-27T09:18:02.732Z,1011.45
2019-06-27T09:19:02.759Z,1011.46
2019-06-27T09:20:02.790Z,1011.46
2019-06-27T09:21:02.813Z,1011.43
2019-06-27T09:22:02.836Z,1011.42
2019-06-27T09:23:02.865Z,1011.51
2019-06-27T09:24:02.887Z,1011.51
2019-06-27T09:25:02.914Z,1011.49
2019-06-27T09:26:02.971Z,1011.48
2019-06-27T09:27:02.971Z,1011.45
2019-06-27T09:28:02.992Z,1011.48
2019-06-27T09:29:03.017Z,1011.41
2019-06-27T09:30:03.074Z,1011.4
2019-06-27T09:31:03.078Z,1011.39
2019-06-27T09:32:03.096Z,1011.39
2019-06-27T09:33:03.121Z,1011.41
2019-06-27T09:34:03.247Z,1011.37
2019-06-27T09:35:03.174Z,1011.38
2019-06-27T09:36:03.198Z,1011.42
2019-06-27T09:37:03.236Z,1011.43
2019-06-27T09:38:03.258Z,1011.42
2019-06-27T09:39:03.277Z,1011.41
2019-06-27T09:40:03.301Z,1011.4
2019-06-27T09:41:03.328Z,1011.43
2019-06-27T09:42:03.593Z,1011.4
2019-06-27T09:43:03.382Z,1011.38
2019-06-27T09:44:03.409Z,1011.39
2019-06-27T09:45:03.599Z,1011.37
2019-06-27T09:46:03.461Z,1011.39
2019-06-27T09:47:03.488Z,1011.36
2019-06-27T09:48:03.511Z,1011.35
2019-06-27T09:49:03.538Z,1011.35
2019-06-27T09:50:03.564Z,1011.35
2019-06-27T09:51:03.591Z,1011.28
2019-06-27T09:52:03.617Z,1011.3
2019-06-27T09:53:03.643Z,1011.32
2019-06-27T09:54:03.669Z,1011.32
2019-06-27T09:55:03.693Z,1011.33
2019-06-27T09:56:03.724Z,1011.34
2019-06-27T09:57:03.760Z,1011.36
2019-06-27T09:58:03.776Z,1011.34
2019-06-27T09:59:03.800Z,1011.29
2019-06-27T10:00:03.826Z,1011.31
2019-06-27T10:01:05.977Z,1011.34
2019-06-27T10:02:03.880Z,1011.27
2019-06-27T10:03:03.904Z,1011.34
2019-06-27T10:04:03.939Z,1011.34
2019-06-27T10:05:03.962Z,1011.31
2019-06-27T10:06:03.983Z,1011.31
2019-06-27T10:07:04.009Z,1011.3
2019-06-27T10:08:04.034Z,1011.33
2019-06-27T10:09:04.066Z,1011.38
2019-06-27T10:10:04.088Z,1011.39
2019-06-27T10:11:04.113Z,1011.36
2019-06-27T10:12:04.157Z,1011.35
2019-06-27T10:13:04.165Z,1011.34
2019-06-27T10:14:04.193Z,1011.32
2019-06-27T10:15:04.225Z,1011.35
2019-06-27T10:16:04.247Z,1011.34
2019-06-27T10:17:04.271Z,1011.32
2019-06-27T10:18:04.300Z,1011.33
2019-06-27T10:19:04.325Z,1011.31
2019-06-27T10:20:04.354Z,1011.34
2019-06-27T10:21:04.378Z,1011.3
2019-06-27T10:22:04.406Z,1011.32
2019-06-27T10:23:04.430Z,1011.32
2019-06-27T10:24:04.496Z,1011.33
2019-06-27T10:25:04.496Z,1011.26
2019-06-27T10:26:04.508Z,1011.24
2019-06-27T10:27:04.536Z,1011.27
2019-06-27T10:28:04.563Z,1011.26
2019-06-27T10:29:04.588Z,1011.26
2019-06-27T10:30:04.615Z,1011.25
2019-06-27T10:31:04.642Z,1011.22
2019-06-27T10:32:04.670Z,1011.22
2019-06-27T10:33:04.695Z,1011.23
2019-06-27T10:34:04.723Z,1011.2
2019-06-27T10:35:04.749Z,1011.22
2019-06-27T10:36:04.852Z,1011.23
2019-06-27T10:37:04.806Z,1011.2
2019-06-27T10:38:04.828Z,1011.18
2019-06-27T10:39:04.854Z,1011.23
2019-06-27T10:40:04.882Z,1011.2
2019-06-27T10:41:04.906Z,1011.23
2019-06-27T10:42:04.932Z,1011.21
2019-06-27T10:43:05.076Z,1011.18
2019-06-27T10:44:04.986Z,1011.15
2019-06-27T10:45:05.115Z,1011.16
2019-06-27T10:46:05.038Z,1011.17
2019-06-27T10:47:05.064Z,1011.14
2019-06-27T10:48:05.092Z,1011.14
2019-06-27T10:49:05.117Z,1011.15
2019-06-27T10:50:05.147Z,1011.12
2019-06-27T10:51:05.171Z,1011.12
2019-06-27T10:52:05.234Z,1011.13
2019-06-27T10:53:05.224Z,1011.11
2019-06-27T10:54:05.251Z,1011.08
2019-06-27T10:55:05.284Z,1011.12
2019-06-27T10:56:05.306Z,1011.11
2019-06-27T10:57:05.333Z,1011.07
2019-06-27T10:58:05.356Z,1011.07
2019-06-27T10:59:05.383Z,1011.07
2019-06-27T11:00:05.410Z,1011.09
2019-06-27T11:01:05.436Z,1011.09
2019-06-27T11:02:05.463Z,1011.07
2019-06-27T11:03:14.665Z,1011.06
2019-06-27T11:04:05.515Z,1011.06
2019-06-27T11:05:05.632Z,1011.07
2019-06-27T11:06:05.569Z,1011.05
2019-06-27T11:07:05.595Z,1011.05
2019-06-27T11:08:05.631Z,1011.06
2019-06-27T11:09:05.649Z,1011.07
2019-06-27T11:10:05.676Z,1011.05
2019-06-27T11:11:05.708Z,1011.03
2019-06-27T11:12:05.727Z,1011.02
2019-06-27T11:13:05.764Z,1011.02
2019-06-27T11:14:05.782Z,1010.96
2019-06-27T11:15:05.805Z,1011.01
2019-06-27T11:16:05.834Z,1011.03
2019-06-27T11:17:05.860Z,1011.01
2019-06-27T11:18:05.888Z,1011
2019-06-27T11:19:05.913Z,1011.05
2019-06-27T11:20:05.979Z,1011.07
2019-06-27T11:21:05.966Z,1011.04
2019-06-27T11:22:05.994Z,1011.02
2019-06-27T11:23:06.018Z,1011.02
2019-06-27T11:24:06.046Z,1011.02
2019-06-27T11:25:06.073Z,1010.95
2019-06-27T11:26:09.333Z,1010.97
2019-06-27T11:27:06.125Z,1010.94
2019-06-27T11:28:06.152Z,1010.86
2019-06-27T11:29:06.178Z,1010.95
2019-06-27T11:30:06.860Z,1010.91
2019-06-27T11:31:06.231Z,1010.94
2019-06-27T11:32:06.270Z,1010.96
2019-06-27T11:33:06.285Z,1010.96
2019-06-27T11:34:06.310Z,1010.95
2019-06-27T11:35:06.338Z,1010.91
2019-06-27T11:36:06.366Z,1010.95
2019-06-27T11:37:06.395Z,1010.94
2019-06-27T11:38:06.420Z,1010.97
2019-06-27T11:39:06.445Z,1010.92
2019-06-27T11:40:06.535Z,1010.93
2019-06-27T11:41:06.496Z,1010.95
2019-06-27T11:42:06.524Z,1010.92
2019-06-27T11:43:06.551Z,1010.9
2019-06-27T11:44:06.577Z,1010.9
2019-06-27T11:45:06.618Z,1010.95
2019-06-27T11:46:08.801Z,1010.95
2019-06-27T11:47:06.655Z,1010.92
2019-06-27T11:48:06.681Z,1010.88
2019-06-27T11:49:06.714Z,1010.83
2019-06-27T11:50:06.736Z,1010.86
2019-06-27T11:51:06.762Z,1010.85
2019-06-27T11:52:06.789Z,1010.84
2019-06-27T11:53:06.821Z,1010.85
2019-06-27T11:54:06.841Z,1010.92
2019-06-27T11:55:06.868Z,1010.86
2019-06-27T11:56:06.898Z,1010.84
2019-06-27T11:57:06.921Z,1010.78
2019-06-27T11:58:06.949Z,1010.78
2019-06-27T11:59:07.036Z,1010.77
2019-06-27T12:00:07.000Z,1010.74
2019-06-27T12:01:07.026Z,1010.76
2019-06-27T12:02:07.116Z,1010.75
2019-06-27T12:03:07.079Z,1010.74
2019-06-27T12:04:07.108Z,1010.74
2019-06-27T12:05:07.132Z,1010.79
2019-06-27T12:06:07.160Z,1010.72
2019-06-27T12:07:07.190Z,1010.73
2019-06-27T12:08:10.703Z,1010.71
2019-06-27T12:09:07.249Z,1010.78